Alps, New York
Current Conditions -  °F | °C
As of 9:51 AM on Wednesday 22 Oct 2014 (Local Time) from KALB Reporting Station
Overcast Overcast  
Wind Chill: 10°   Ceiling: 2800
Heat Index: 10°   Visibility: 10mi
Dew Point:   Wind: 10mph
Humidity: 80%   Direction: 10°N
Pressure: 30.1"   Gusts: NA
Location:  42.6497°N, 73.5273°W
Report Text: KALB 221351Z 01009KT 10SM FEW013 OVC028 10/07 A3010 RMK AO2 SLP192 FEW V SCT T01000067
Loading
Personal Weather Stations






























Interactive Weather Map New forecast layout! Learn more

10-Day Weather Forecast

Advertisements
Track Severe Weather on mobile